createdAt,value
2022-10-22T00:01:47.668Z,100776.09
2022-10-22T00:04:17.409Z,100771.66
2022-10-22T00:06:49.725Z,100783.97
2022-10-22T00:09:19.488Z,100777.75
2022-10-22T00:11:49.283Z,100774.13
2022-10-22T00:14:19.157Z,100785.56
2022-10-22T00:16:48.862Z,100785.50
2022-10-22T00:19:18.559Z,100788.16
2022-10-22T00:21:50.877Z,100788.94
2022-10-22T00:24:20.557Z,100793.28
2022-10-22T00:26:50.365Z,100788.84
2022-10-22T00:29:21.115Z,100792.31
2022-10-22T00:31:52.533Z,100788.69
2022-10-22T00:34:23.723Z,100796.59
2022-10-22T00:36:56.323Z,100805.34
2022-10-22T00:39:28.188Z,100799.97
2022-10-22T00:41:59.541Z,100804.31
2022-10-22T00:45:04.892Z,100803.41
2022-10-22T00:47:36.387Z,100800.66
2022-10-22T00:50:08.831Z,100800.59
2022-10-22T00:52:42.381Z,100807.59
2022-10-22T00:55:13.150Z,100795.22
2022-10-22T00:57:43.485Z,100810.16
2022-10-22T01:00:14.625Z,100803.03
2022-10-22T01:02:44.390Z,100803.00
2022-10-22T01:05:14.744Z,100804.75
2022-10-22T01:07:50.341Z,100812.63
2022-10-22T01:10:44.732Z,100810.88
2022-10-22T01:13:24.955Z,100811.69
2022-10-22T01:16:02.496Z,100818.69
2022-10-22T01:18:39.577Z,100814.22
2022-10-22T01:21:21.036Z,100818.59
2022-10-22T01:24:16.101Z,100819.47
2022-10-22T01:27:03.457Z,100817.66
2022-10-22T01:29:40.639Z,100827.34
2022-10-22T01:32:15.559Z,100822.06
2022-10-22T01:34:49.933Z,100818.53
2022-10-22T01:37:23.544Z,100817.66
2022-10-22T01:39:54.801Z,100818.53
2022-10-22T01:42:24.493Z,100821.16
2022-10-22T01:44:56.873Z,100818.53
2022-10-22T01:47:40.609Z,100821.16
2022-10-22T01:50:46.089Z,100823.78
2022-10-22T01:53:27.074Z,100813.19
2022-10-22T01:56:12.524Z,100818.47
2022-10-22T01:58:48.055Z,100816.72
2022-10-22T02:01:29.560Z,100812.31
2022-10-22T02:04:08.106Z,100807.91
2022-10-22T02:06:41.604Z,100818.47
2022-10-22T02:09:12.787Z,100816.72
2022-10-22T02:11:43.332Z,100821.13
2022-10-22T02:14:14.854Z,100817.59
2022-10-22T02:16:50.348Z,100814.97
2022-10-22T02:19:27.384Z,100809.69
2022-10-22T02:21:57.929Z,100817.59
2022-10-22T02:24:28.497Z,100812.31
2022-10-22T02:27:07.351Z,100813.19
2022-10-22T02:29:42.064Z,100812.31
2022-10-22T02:32:21.073Z,100809.69
2022-10-22T02:34:52.461Z,100788.53
2022-10-22T02:37:23.785Z,100800.88
2022-10-22T02:39:56.388Z,100786.78
2022-10-22T02:42:28.141Z,100799.97
2022-10-22T02:44:57.835Z,100806.16
2022-10-22T02:47:30.245Z,100806.16
2022-10-22T02:49:59.928Z,100807.97
2022-10-22T02:52:29.618Z,100796.53
2022-10-22T02:54:59.337Z,100802.72
2022-10-22T02:57:29.128Z,100809.78
2022-10-22T02:59:58.841Z,100814.22
2022-10-22T03:02:31.170Z,100823.09
2022-10-22T03:05:00.952Z,100809.88
2022-10-22T03:07:30.621Z,100808.19
2022-10-22T03:10:00.315Z,100800.28
2022-10-22T03:12:30.047Z,100800.31
2022-10-22T03:14:59.740Z,100799.47
2022-10-22T03:17:32.078Z,100795.91
2022-10-22T03:20:01.745Z,100799.47
2022-10-22T03:22:35.107Z,100797.66
2022-10-22T03:25:10.716Z,100810.03
2022-10-22T03:27:42.876Z,100804.75
2022-10-22T03:30:14.240Z,100808.28
2022-10-22T03:32:46.568Z,100807.41
2022-10-22T03:35:16.263Z,100809.22
2022-10-22T03:37:45.986Z,100810.09
2022-10-22T03:40:16.973Z,100803.91
2022-10-22T03:42:46.802Z,100809.22
2022-10-22T03:45:16.615Z,100803.00
2022-10-22T03:47:48.884Z,100802.13
2022-10-22T03:50:18.908Z,100805.63
2022-10-22T03:52:48.596Z,100798.53
2022-10-22T03:55:18.299Z,100805.56
2022-10-22T03:57:48.013Z,100809.94
2022-10-22T04:00:18.285Z,100812.59
2022-10-22T04:02:50.572Z,100814.34
2022-10-22T04:05:20.483Z,100810.78
2022-10-22T04:07:50.165Z,100815.16
2022-10-22T04:10:20.023Z,100816.88
2022-10-22T04:12:50.401Z,100816.00
2022-10-22T04:15:20.517Z,100818.66
2022-10-22T04:17:52.862Z,100826.56
2022-10-22T04:20:22.625Z,100827.41
2022-10-22T04:22:52.308Z,100823.88
2022-10-22T04:25:22.029Z,100818.53
2022-10-22T04:27:51.705Z,100830.03
2022-10-22T04:30:21.645Z,100832.63
2022-10-22T04:32:53.950Z,100830.84
2022-10-22T04:38:13.306Z,100825.47
2022-10-22T04:40:43.000Z,100839.56
2022-10-22T04:43:12.713Z,100833.41
2022-10-22T04:45:42.401Z,100836.03
2022-10-22T04:48:14.695Z,100831.59
2022-10-22T04:50:44.439Z,100836.00
2022-10-22T04:53:14.145Z,100834.22
2022-10-22T04:55:43.825Z,100846.56
2022-10-22T04:58:13.519Z,100843.06
2022-10-22T05:00:43.247Z,100843.97
2022-10-22T05:03:15.578Z,100844.84
2022-10-22T05:05:45.262Z,100850.19
2022-10-22T05:08:14.950Z,100845.78
2022-10-22T05:10:44.622Z,100847.53
2022-10-22T05:13:14.299Z,100836.97
2022-10-22T05:15:44.007Z,100845.78
2022-10-22T05:18:18.993Z,100843.19
2022-10-22T05:20:51.549Z,100838.78
2022-10-22T05:23:21.240Z,100842.31
2022-10-22T05:25:50.912Z,100836.13
2022-10-22T05:28:20.591Z,100835.28
2022-10-22T05:30:56.856Z,100826.47
2022-10-22T05:33:29.532Z,100834.38
2022-10-22T05:36:00.114Z,100830.88
2022-10-22T05:38:30.213Z,100830.88
2022-10-22T05:41:05.652Z,100827.34
2022-10-22T05:43:35.874Z,100834.38
2022-10-22T05:46:07.148Z,100837.03
2022-10-22T05:48:40.174Z,100836.16
2022-10-22T05:51:12.308Z,100836.16
2022-10-22T05:53:44.656Z,100837.97
2022-10-22T05:56:16.461Z,100846.78
2022-10-22T05:58:47.463Z,100847.66
2022-10-22T06:01:19.873Z,100844.13
2022-10-22T06:03:52.844Z,100848.53
2022-10-22T06:06:24.488Z,100849.41
2022-10-22T06:08:55.369Z,100849.44
2022-10-22T06:11:28.845Z,100848.53
2022-10-22T06:14:00.891Z,100849.44
2022-10-22T06:16:32.173Z,100851.22
2022-10-22T06:19:05.366Z,100851.22
2022-10-22T06:21:35.833Z,100852.13
2022-10-22T06:24:05.592Z,100852.13
2022-10-22T06:26:35.451Z,100857.44
2022-10-22T06:29:05.712Z,100861.84
2022-10-22T06:31:37.070Z,100859.25
2022-10-22T06:34:10.983Z,100869.00
2022-10-22T06:36:42.842Z,100856.63
2022-10-22T06:39:14.614Z,100862.84
2022-10-22T06:41:44.756Z,100861.97
2022-10-22T06:44:17.369Z,100864.66
2022-10-22T06:46:47.269Z,100875.22
2022-10-22T06:49:19.607Z,100875.28
2022-10-22T06:51:52.603Z,100876.22
2022-10-22T06:54:22.538Z,100883.31
2022-10-22T06:56:52.800Z,100880.72
2022-10-22T06:59:22.514Z,100890.47
2022-10-22T07:01:52.367Z,100893.19
2022-10-22T07:04:24.741Z,100894.09
2022-10-22T07:06:57.378Z,100896.84
2022-10-22T07:09:27.115Z,100905.69
2022-10-22T07:11:56.825Z,100905.69
2022-10-22T07:14:26.585Z,100900.47
2022-10-22T07:16:56.257Z,100907.53
2022-10-22T07:19:28.573Z,100912.88
2022-10-22T07:21:58.309Z,100913.78
2022-10-22T07:24:28.188Z,100924.34
2022-10-22T07:26:57.898Z,100926.16
2022-10-22T07:29:28.546Z,100929.72
2022-10-22T07:31:58.217Z,100929.78
2022-10-22T07:34:30.586Z,100925.38
2022-10-22T07:37:00.402Z,100935.13
2022-10-22T07:39:30.431Z,100942.19
2022-10-22T07:42:00.138Z,100933.41
2022-10-22T07:44:30.079Z,100929.91
2022-10-22T07:46:59.758Z,100944.06
2022-10-22T07:49:32.071Z,100940.63
2022-10-22T07:52:01.781Z,100939.75
2022-10-22T07:54:31.647Z,100941.56
2022-10-22T07:57:01.489Z,100949.53
2022-10-22T07:59:31.154Z,100950.47
2022-10-22T08:02:36.495Z,100950.47
2022-10-22T08:05:13.731Z,100955.81
2022-10-22T08:07:44.025Z,100957.63
2022-10-22T08:10:14.894Z,100957.66
2022-10-22T08:12:44.871Z,100960.34
2022-10-22T08:15:14.713Z,100968.31
2022-10-22T08:17:44.644Z,100962.19
2022-10-22T08:20:17.475Z,100964.94
2022-10-22T08:22:47.596Z,100965.84
2022-10-22T08:25:18.400Z,100957.97
2022-10-22T08:27:48.363Z,100968.63
2022-10-22T08:30:18.598Z,100970.47
2022-10-22T08:32:51.611Z,100975.88
2022-10-22T08:35:26.365Z,100983.91
2022-10-22T08:37:56.064Z,100981.34
2022-10-22T08:40:33.680Z,100973.50
2022-10-22T08:43:24.346Z,100988.63
2022-10-22T08:46:02.734Z,100986.94
2022-10-22T08:48:45.834Z,100981.72
2022-10-22T08:51:20.997Z,100980.09
2022-10-22T08:54:04.166Z,100985.50
2022-10-22T08:56:35.685Z,100988.25
2022-10-22T08:59:13.457Z,100988.34
2022-10-22T09:01:48.481Z,100989.34
2022-10-22T09:04:25.622Z,100983.28
2022-10-22T09:07:01.324Z,100993.13
2022-10-22T09:09:36.790Z,100994.97
2022-10-22T09:12:08.774Z,100988.00
2022-10-22T09:14:38.549Z,100987.22
2022-10-22T09:17:19.212Z,100990.88
2022-10-22T09:20:00.769Z,100992.75
2022-10-22T09:22:41.523Z,100989.38
2022-10-22T09:25:23.316Z,100994.78
2022-10-22T09:27:58.440Z,101005.50
2022-10-22T09:30:30.584Z,101005.59
2022-10-22T09:33:04.695Z,100998.59
2022-10-22T09:35:37.670Z,100996.91
2022-10-22T09:38:11.912Z,101000.50
2022-10-22T09:40:50.883Z,101002.34
2022-10-22T09:43:21.136Z,101007.69
2022-10-22T09:45:58.105Z,101011.25
2022-10-22T09:48:34.570Z,101007.72
2022-10-22T09:51:09.600Z,101001.56
2022-10-22T09:53:46.157Z,101007.78
2022-10-22T09:56:26.790Z,101011.31
2022-10-22T09:58:59.482Z,101011.38
2022-10-22T10:01:31.605Z,101027.34
2022-10-22T10:04:09.854Z,101026.53
2022-10-22T10:06:42.049Z,101032.72
2022-10-22T10:09:19.917Z,101028.34
2022-10-22T10:11:56.065Z,101036.28
2022-10-22T10:14:38.166Z,101038.97
2022-10-22T10:17:18.430Z,101043.41
2022-10-22T10:20:02.906Z,101048.72
2022-10-22T10:22:45.890Z,101046.97
2022-10-22T10:25:35.394Z,101051.41
2022-10-22T10:28:22.717Z,101051.41
2022-10-22T10:31:00.134Z,101063.81
2022-10-22T10:33:41.201Z,101060.31
2022-10-22T10:36:19.585Z,101058.56
2022-10-22T10:38:59.786Z,101056.00
2022-10-22T10:41:40.641Z,101057.75
2022-10-22T10:44:25.653Z,101063.09
2022-10-22T10:47:06.965Z,101070.22
2022-10-22T10:49:39.013Z,101061.34
2022-10-22T10:52:20.566Z,101064.94
2022-10-22T10:55:02.250Z,101076.41
2022-10-22T10:57:45.618Z,101066.66
2022-10-22T11:00:19.996Z,101072.94
2022-10-22T11:03:32.376Z,101073.84
2022-10-22T11:06:05.158Z,101083.59
2022-10-22T11:08:37.798Z,101077.34
2022-10-22T11:11:13.259Z,101080.94
2022-10-22T11:13:52.113Z,101080.94
2022-10-22T11:16:26.301Z,101094.28
2022-10-22T11:19:02.615Z,101088.09
2022-10-22T11:21:37.128Z,101089.91
2022-10-22T11:24:15.805Z,101097.00
2022-10-22T11:26:49.641Z,101102.34
2022-10-22T11:29:28.263Z,101097.03
2022-10-22T11:32:05.311Z,101109.38
2022-10-22T11:34:43.603Z,101115.44
2022-10-22T11:37:16.093Z,101111.84
2022-10-22T11:39:50.389Z,101112.66
2022-10-22T11:42:23.842Z,101120.56
2022-10-22T11:45:08.633Z,101118.72
2022-10-22T11:47:55.106Z,101131.03
2022-10-22T11:50:28.069Z,101123.03
2022-10-22T11:53:04.771Z,101125.66
2022-10-22T11:55:46.126Z,101120.31
2022-10-22T11:58:33.665Z,101123.75
2022-10-22T12:01:25.732Z,101128.16
2022-10-22T12:04:16.908Z,101125.44
2022-10-22T12:06:59.988Z,101122.78
2022-10-22T12:09:33.652Z,101126.34
2022-10-22T12:12:15.608Z,101129.91
2022-10-22T12:14:57.279Z,101124.66
2022-10-22T12:17:31.633Z,101122.09
2022-10-22T12:20:05.165Z,101125.69
2022-10-22T12:22:37.793Z,101119.50
2022-10-22T12:25:21.620Z,101116.88
2022-10-22T12:27:55.149Z,101121.34
2022-10-22T12:30:27.220Z,101117.81
2022-10-22T12:33:01.560Z,101129.31
2022-10-22T12:35:34.039Z,101128.38
2022-10-22T12:38:05.946Z,101135.47
2022-10-22T12:40:37.738Z,101135.47
2022-10-22T12:43:14.949Z,101129.31
2022-10-22T12:45:48.274Z,101138.16
2022-10-22T12:48:23.600Z,101133.78
2022-10-22T12:50:56.258Z,101131.19
2022-10-22T12:53:30.021Z,101133.06
2022-10-22T12:56:04.424Z,101126.94
2022-10-22T12:58:41.116Z,101124.41
2022-10-22T13:01:13.927Z,101134.19
2022-10-22T13:03:50.005Z,101132.44
2022-10-22T13:06:28.524Z,101135.97
2022-10-22T13:09:17.439Z,101143.09
2022-10-22T13:11:53.832Z,101139.59
2022-10-22T13:14:29.652Z,101138.72
2022-10-22T13:17:15.039Z,101136.06
2022-10-22T13:19:51.093Z,101144.94
2022-10-22T13:22:32.894Z,101140.50
2022-10-22T13:25:08.194Z,101145.84
2022-10-22T13:27:46.055Z,101154.69
2022-10-22T13:30:22.490Z,101149.41
2022-10-22T13:32:54.109Z,101140.63
2022-10-22T13:35:29.282Z,101147.75
2022-10-22T13:37:59.000Z,101144.22
2022-10-22T13:40:29.221Z,101142.50
2022-10-22T13:42:58.916Z,101152.19
2022-10-22T13:45:28.605Z,101146.88
2022-10-22T13:47:58.363Z,101141.56
2022-10-22T13:50:30.633Z,101153.16
2022-10-22T13:53:01.527Z,101153.19
2022-10-22T13:55:33.457Z,101150.56
2022-10-22T13:58:07.439Z,101141.69
2022-10-22T14:00:37.322Z,101147.91
2022-10-22T14:03:07.958Z,101145.22
2022-10-22T14:05:40.309Z,101155.88
2022-10-22T14:08:14.511Z,101160.25
2022-10-22T14:10:44.259Z,101153.25
2022-10-22T14:13:14.858Z,101162.97
2022-10-22T14:15:45.589Z,101165.63
2022-10-22T14:18:24.292Z,101173.63
2022-10-22T14:20:59.167Z,101170.09
2022-10-22T14:23:31.021Z,101170.13
2022-10-22T14:26:01.909Z,101167.53
2022-10-22T14:28:40.992Z,101172.84
2022-10-22T14:31:16.283Z,101174.66
2022-10-22T14:33:46.704Z,101177.25
2022-10-22T14:36:20.961Z,101180.78
2022-10-22T14:38:51.690Z,101180.75
2022-10-22T14:41:24.186Z,101176.31
2022-10-22T14:43:55.952Z,101170.13
2022-10-22T14:46:25.848Z,101186.97
2022-10-22T14:48:55.601Z,101182.53
2022-10-22T14:51:30.173Z,101191.41
2022-10-22T14:53:59.890Z,101192.31
2022-10-22T14:56:29.608Z,101194.06
2022-10-22T14:58:59.357Z,101197.59
2022-10-22T15:01:29.106Z,101201.13
2022-10-22T15:03:58.877Z,101209.06
2022-10-22T15:06:31.190Z,101208.16
2022-10-22T15:09:00.940Z,101206.38
2022-10-22T15:11:30.720Z,101212.56
2022-10-22T15:14:00.418Z,101215.22
2022-10-22T15:16:30.609Z,101211.66
2022-10-22T15:19:01.097Z,101216.94
2022-10-22T15:21:33.488Z,101215.06
2022-10-22T15:24:04.828Z,101216.75
2022-10-22T15:26:34.773Z,101225.53
2022-10-22T15:29:05.850Z,101227.25
2022-10-22T15:31:49.729Z,101236.97
2022-10-22T15:34:23.733Z,101241.31
2022-10-22T15:36:57.749Z,101237.69
2022-10-22T15:39:27.996Z,101237.63
2022-10-22T15:41:58.770Z,101253.47
2022-10-22T15:44:31.424Z,101248.09
2022-10-22T15:47:02.716Z,101250.63
2022-10-22T15:49:32.505Z,101255.03
2022-10-22T15:52:04.952Z,101260.25
2022-10-22T15:54:35.005Z,101269.91
2022-10-22T15:57:08.735Z,101274.28
2022-10-22T15:59:39.117Z,101260.88
2022-10-22T16:02:10.549Z,101266.13
2022-10-22T16:04:40.936Z,101269.59
2022-10-22T16:07:13.296Z,101265.13
2022-10-22T16:09:43.056Z,101262.41
2022-10-22T16:12:15.268Z,101272.00
2022-10-22T16:14:46.995Z,101272.78
2022-10-22T16:17:16.762Z,101278.03
2022-10-22T16:19:46.901Z,101283.28
2022-10-22T16:22:19.303Z,101283.25
2022-10-22T16:24:49.129Z,101288.53
2022-10-22T16:27:18.898Z,101288.47
2022-10-22T16:29:49.106Z,101292.88
2022-10-22T16:32:19.041Z,101294.66
2022-10-22T16:34:48.856Z,101304.44
2022-10-22T16:37:21.250Z,101296.47
2022-10-22T16:39:51.103Z,101300.91
2022-10-22T16:42:20.828Z,101304.44
2022-10-22T16:44:50.584Z,101310.63
2022-10-22T16:47:20.323Z,101307.03
2022-10-22T16:49:50.071Z,101311.41
2022-10-22T16:52:22.700Z,101314.94
2022-10-22T16:54:52.514Z,101314.84
2022-10-22T16:57:22.283Z,101320.06
2022-10-22T16:59:52.029Z,101312.94
2022-10-22T17:02:21.797Z,101319.06
2022-10-22T17:04:51.584Z,101312.88
2022-10-22T17:07:23.956Z,101322.53
2022-10-22T17:09:56.663Z,101330.41
2022-10-22T17:12:26.762Z,101331.22
2022-10-22T17:14:56.491Z,101336.50
2022-10-22T17:17:26.530Z,101339.09
2022-10-22T17:19:56.338Z,101340.78
2022-10-22T17:22:29.112Z,101344.25
2022-10-22T17:25:11.614Z,101348.56
2022-10-22T17:27:41.697Z,101348.44
2022-10-22T17:30:15.394Z,101353.63
2022-10-22T17:32:45.699Z,101356.19
2022-10-22T17:35:18.375Z,101360.44
2022-10-22T17:37:50.734Z,101354.19
2022-10-22T17:40:21.734Z,101359.41
2022-10-22T17:42:51.608Z,101358.47
2022-10-22T17:45:21.343Z,101361.94
2022-10-22T17:47:53.822Z,101365.44
2022-10-22T17:50:23.633Z,101368.00
2022-10-22T17:52:56.052Z,101368.78
2022-10-22T17:55:25.839Z,101366.97
2022-10-22T17:57:55.580Z,101365.09
2022-10-22T18:00:25.388Z,101367.72
2022-10-22T18:02:55.234Z,101375.53
2022-10-22T18:05:27.751Z,101371.06
2022-10-22T18:08:03.294Z,101386.03
2022-10-22T18:10:41.749Z,101388.56
2022-10-22T18:13:11.581Z,101384.94
2022-10-22T18:15:41.437Z,101387.53
2022-10-22T18:18:11.841Z,101386.50
2022-10-22T18:20:41.538Z,101383.75
2022-10-22T18:23:15.243Z,101383.66
2022-10-22T18:25:45.001Z,101384.44
2022-10-22T18:28:16.101Z,101393.13
2022-10-22T18:30:46.525Z,101387.78
2022-10-22T18:33:17.560Z,101394.72
2022-10-22T18:35:49.222Z,101392.91
2022-10-22T18:38:22.753Z,101395.47
2022-10-22T18:40:53.366Z,101402.47
2022-10-22T18:43:23.122Z,101401.50
2022-10-22T18:45:52.999Z,101389.09
2022-10-22T18:48:24.059Z,101395.22
2022-10-22T18:51:02.071Z,101407.53
2022-10-22T18:53:34.630Z,101400.41
2022-10-22T18:56:04.525Z,101402.94
2022-10-22T18:58:34.405Z,101401.13
2022-10-22T19:01:10.064Z,101408.16
2022-10-22T19:03:40.115Z,101406.34
2022-10-22T19:06:10.388Z,101408.03
2022-10-22T19:08:43.627Z,101408.91
2022-10-22T19:11:16.710Z,101406.19
2022-10-22T19:13:46.422Z,101408.75
2022-10-22T19:16:23.631Z,101413.97
2022-10-22T19:18:54.801Z,101410.38
2022-10-22T19:21:24.720Z,101412.88
2022-10-22T19:23:57.991Z,101414.59
2022-10-22T19:26:29.185Z,101407.47
2022-10-22T19:29:00.837Z,101413.63
2022-10-22T19:31:32.558Z,101419.72
2022-10-22T19:34:04.128Z,101414.34
2022-10-22T19:36:36.074Z,101411.63
2022-10-22T19:39:09.085Z,101416.84
2022-10-22T19:41:39.557Z,101411.47
2022-10-22T19:44:09.251Z,101418.38
2022-10-22T19:46:39.497Z,101413.03
2022-10-22T19:49:09.274Z,101417.34
2022-10-22T19:51:40.311Z,101418.09
2022-10-22T19:54:18.992Z,101427.69
2022-10-22T19:56:49.823Z,101431.94
2022-10-22T19:59:22.813Z,101432.69
2022-10-22T20:01:52.857Z,101438.78
2022-10-22T20:04:25.188Z,101433.41
2022-10-22T20:06:54.961Z,101441.28
2022-10-22T20:09:27.738Z,101425.31
2022-10-22T20:11:57.553Z,101427.03
2022-10-22T20:14:27.324Z,101430.53
2022-10-22T20:16:57.334Z,101437.56
2022-10-22T20:19:29.355Z,101429.50
2022-10-22T20:24:31.498Z,101440.78
2022-10-22T20:27:01.219Z,101435.44
2022-10-22T20:29:30.904Z,101438.88
2022-10-22T20:32:01.568Z,101438.88
2022-10-22T20:34:33.001Z,101444.09
2022-10-22T20:37:02.747Z,101446.72
2022-10-22T20:39:35.113Z,101432.63
2022-10-22T20:42:04.955Z,101443.13
2022-10-22T20:44:34.681Z,101444.00
2022-10-22T20:47:04.398Z,101449.22
2022-10-22T20:49:34.765Z,101445.69
2022-10-22T20:52:04.525Z,101448.25
2022-10-22T20:54:41.461Z,101446.50
2022-10-22T20:57:11.393Z,101449.97
2022-10-22T20:59:41.112Z,101451.72
2022-10-22T21:02:11.994Z,101449.06
2022-10-22T21:04:44.103Z,101452.53
2022-10-22T21:07:15.437Z,101453.38
2022-10-22T21:09:47.760Z,101445.47
2022-10-22T21:12:17.451Z,101440.97
2022-10-22T21:14:47.184Z,101442.75
2022-10-22T21:17:16.886Z,101440.09
2022-10-22T21:19:46.572Z,101432.16
2022-10-22T21:22:16.237Z,101433.00
2022-10-22T21:24:48.526Z,101436.59
2022-10-22T21:27:18.233Z,101436.53
2022-10-22T21:29:47.929Z,101438.28
2022-10-22T21:32:17.946Z,101444.41
2022-10-22T21:34:47.645Z,101440.91
2022-10-22T21:37:17.326Z,101441.78
2022-10-22T21:39:50.061Z,101451.44
2022-10-22T21:42:20.274Z,101446.09
2022-10-22T21:44:50.191Z,101443.47
2022-10-22T21:47:19.937Z,101442.56
2022-10-22T21:49:49.766Z,101441.69
2022-10-22T21:52:19.495Z,101441.69
2022-10-22T21:54:51.845Z,101436.41
2022-10-22T21:57:21.560Z,101440.75
2022-10-22T21:59:51.297Z,101437.28
2022-10-22T22:04:50.675Z,101450.44
2022-10-22T22:07:20.426Z,101445.16
2022-10-22T22:09:52.936Z,101443.38
2022-10-22T22:12:23.021Z,101440.66
2022-10-22T22:14:52.734Z,101446.84
2022-10-22T22:17:22.419Z,101452.97
2022-10-22T22:19:52.154Z,101458.19
2022-10-22T22:22:21.986Z,101451.13
2022-10-22T22:24:54.407Z,101448.44
2022-10-22T22:27:24.122Z,101437.88
2022-10-22T22:29:53.818Z,101444.84
2022-10-22T22:32:23.557Z,101451.94
2022-10-22T22:34:53.383Z,101456.31
2022-10-22T22:37:23.154Z,101460.69
2022-10-22T22:39:56.074Z,101463.38
2022-10-22T22:42:25.825Z,101458.97
2022-10-22T22:44:55.594Z,101456.31
2022-10-22T22:47:25.325Z,101452.75
2022-10-22T22:49:55.057Z,101462.44
2022-10-22T22:52:24.956Z,101463.31
2022-10-22T22:54:57.352Z,101461.53
2022-10-22T22:57:27.057Z,101458.81
2022-10-22T22:59:56.752Z,101458.72
2022-10-22T23:02:26.520Z,101467.53
2022-10-22T23:04:56.247Z,101456.88
2022-10-22T23:07:26.223Z,101456.84
2022-10-22T23:09:58.644Z,101456.72
2022-10-22T23:12:29.046Z,101459.28
2022-10-22T23:15:02.173Z,101452.13
2022-10-22T23:17:31.942Z,101452.03
2022-10-22T23:20:01.684Z,101454.59
2022-10-22T23:22:31.445Z,101454.44
2022-10-22T23:25:03.919Z,101450.88
2022-10-22T23:27:33.624Z,101451.72
2022-10-22T23:30:03.337Z,101451.53
2022-10-22T23:32:33.070Z,101447.97
2022-10-22T23:35:02.756Z,101437.28
2022-10-22T23:37:32.459Z,101432.88
2022-10-22T23:40:04.774Z,101441.66
2022-10-22T23:42:34.543Z,101431.88
2022-10-22T23:45:04.301Z,101430.03
2022-10-22T23:47:33.964Z,101434.47
2022-10-22T23:50:03.669Z,101433.50
2022-10-22T23:52:33.381Z,101429.09
2022-10-22T23:55:05.694Z,101423.72
2022-10-22T23:57:35.406Z,101429.88
